createdAt,value
2022-08-22T00:00:13.878Z,61.13
2022-08-22T00:02:43.198Z,27.52
2022-08-22T00:02:57.439Z,52.33
2022-08-22T00:02:57.557Z,54.00
2022-08-22T00:03:09.241Z,45.33
2022-08-22T00:03:17.501Z,60.28
2022-08-22T00:05:55.146Z,59.90
2022-08-22T00:08:30.101Z,61.60
2022-08-22T00:11:04.280Z,67.65
2022-08-22T00:13:42.058Z,68.97
2022-08-22T00:16:17.786Z,69.75
2022-08-22T00:18:52.510Z,65.53
2022-08-22T00:21:29.676Z,60.17
2022-08-22T00:24:14.904Z,74.68
2022-08-22T00:26:54.120Z,66.88
2022-08-22T00:29:28.771Z,64.60
2022-08-22T00:32:06.761Z,65.65
2022-08-22T00:34:40.202Z,67.32
2022-08-22T00:37:19.217Z,72.15
2022-08-22T00:39:54.935Z,71.07
2022-08-22T00:43:02.110Z,69.03
2022-08-22T00:45:49.448Z,66.13
2022-08-22T00:48:49.902Z,66.68
2022-08-22T00:51:46.214Z,70.72
2022-08-22T00:54:30.442Z,72.25
2022-08-22T00:57:24.466Z,68.55
2022-08-22T01:00:09.354Z,65.18
2022-08-22T01:02:53.090Z,73.10
2022-08-22T01:05:42.099Z,70.57
2022-08-22T01:08:38.622Z,68.00
2022-08-22T01:11:25.709Z,68.15
2022-08-22T01:14:09.456Z,76.82
2022-08-22T01:17:08.664Z,70.53
2022-08-22T01:20:26.858Z,73.93
2022-08-22T01:23:41.052Z,72.85
2022-08-22T01:26:40.505Z,75.88
2022-08-22T01:30:00.618Z,70.65
2022-08-22T01:35:59.794Z,67.38
2022-08-22T01:38:53.360Z,79.63
2022-08-22T01:41:55.602Z,62.75
2022-08-22T01:45:00.995Z,76.82
2022-08-22T01:47:39.038Z,74.25
2022-08-22T01:50:18.677Z,75.22
2022-08-22T01:52:52.053Z,71.43
2022-08-22T01:55:27.683Z,73.90
2022-08-22T01:58:00.703Z,70.13
2022-08-22T02:00:35.899Z,72.72
2022-08-22T02:03:14.663Z,65.28
2022-08-22T02:05:51.702Z,70.68
2022-08-22T02:08:32.974Z,79.82
2022-08-22T02:11:07.360Z,79.20
2022-08-22T02:13:51.144Z,71.40
2022-08-22T02:16:33.782Z,69.47
2022-08-22T02:19:21.343Z,71.30
2022-08-22T02:21:56.970Z,72.45
2022-08-22T02:24:35.773Z,76.13
2022-08-22T02:27:13.296Z,81.22
2022-08-22T02:29:49.441Z,73.25
2022-08-22T02:32:26.477Z,79.38
2022-08-22T02:35:04.715Z,75.70
2022-08-22T02:37:42.106Z,73.03
2022-08-22T02:40:27.490Z,76.38
2022-08-22T02:43:04.067Z,85.03
2022-08-22T02:45:41.371Z,75.30
2022-08-22T02:48:27.728Z,77.95
2022-08-22T02:51:05.368Z,70.30
2022-08-22T02:53:40.967Z,70.03
2022-08-22T02:56:16.767Z,75.95
2022-08-22T02:58:53.639Z,75.30
2022-08-22T03:01:38.780Z,86.45
2022-08-22T03:04:26.454Z,72.00
2022-08-22T03:07:12.672Z,82.60
2022-08-22T03:09:48.916Z,88.15
2022-08-22T03:12:28.699Z,81.43
2022-08-22T03:15:07.698Z,89.20
2022-08-22T03:17:48.352Z,94.07
2022-08-22T03:20:37.159Z,98.00
2022-08-22T03:23:14.454Z,102.07
2022-08-22T03:25:50.063Z,103.97
2022-08-22T03:28:26.315Z,108.10
2022-08-22T03:31:01.827Z,90.38
2022-08-22T03:33:32.540Z,101.07
2022-08-22T03:36:07.815Z,104.07
2022-08-22T03:39:08.156Z,102.68
2022-08-22T03:42:05.000Z,110.63
2022-08-22T03:45:16.389Z,116.90
2022-08-22T03:48:21.466Z,113.05
2022-08-22T03:51:11.632Z,116.82
2022-08-22T03:54:11.529Z,119.50
2022-08-22T03:57:25.125Z,118.80
2022-08-22T04:00:15.754Z,129.55
2022-08-22T04:03:16.865Z,125.97
2022-08-22T04:06:14.766Z,145.73
2022-08-22T04:09:19.718Z,134.05
2022-08-22T04:12:18.894Z,145.38
2022-08-22T04:15:05.677Z,142.63
2022-08-22T04:18:09.157Z,159.05
2022-08-22T04:21:04.643Z,161.50
2022-08-22T04:24:12.451Z,145.85
2022-08-22T04:26:47.298Z,161.75
2022-08-22T04:29:20.835Z,157.15
2022-08-22T04:31:57.942Z,165.38
2022-08-22T04:34:35.697Z,181.95
2022-08-22T04:37:11.289Z,174.52
2022-08-22T04:39:47.719Z,174.48
2022-08-22T04:42:32.708Z,192.35
2022-08-22T04:45:08.168Z,187.95
2022-08-22T04:47:40.348Z,205.90
2022-08-22T04:50:17.354Z,193.30
2022-08-22T04:53:03.201Z,196.98
2022-08-22T04:55:46.117Z,199.20
2022-08-22T04:58:31.758Z,214.93
2022-08-22T05:01:12.238Z,211.27
2022-08-22T05:03:47.128Z,208.70
2022-08-22T05:06:19.939Z,199.65
2022-08-22T05:08:53.663Z,215.73
2022-08-22T05:11:25.390Z,221.75
2022-08-22T05:14:00.146Z,215.13
2022-08-22T05:16:34.639Z,217.88
2022-08-22T05:19:18.253Z,213.90
2022-08-22T05:21:53.402Z,222.63
2022-08-22T05:24:28.010Z,219.73
2022-08-22T05:29:32.400Z,216.20
2022-08-22T05:32:05.162Z,209.02
2022-08-22T05:34:40.483Z,215.50
2022-08-22T05:37:15.579Z,212.50
2022-08-22T05:39:50.348Z,210.82
2022-08-22T05:42:28.071Z,222.20
2022-08-22T05:44:57.414Z,207.00
2022-08-22T05:47:36.544Z,219.90
2022-08-22T05:50:11.843Z,218.10
2022-08-22T05:52:59.213Z,200.30
2022-08-22T05:55:32.659Z,209.85
2022-08-22T05:58:14.496Z,233.70
2022-08-22T06:00:47.257Z,203.25
2022-08-22T06:03:22.389Z,214.23
2022-08-22T06:05:54.554Z,210.57
2022-08-22T06:08:30.334Z,211.05
2022-08-22T06:11:04.715Z,210.85
2022-08-22T06:13:37.341Z,223.93
2022-08-22T06:16:17.915Z,207.95
2022-08-22T06:18:49.243Z,212.50
2022-08-22T06:21:22.988Z,211.40
2022-08-22T06:23:58.765Z,197.75
2022-08-22T06:26:33.882Z,197.77
2022-08-22T06:29:03.994Z,205.23
2022-08-22T06:31:36.956Z,197.05
2022-08-22T06:34:10.693Z,202.63
2022-08-22T06:36:42.438Z,189.82
2022-08-22T06:39:20.067Z,200.20
2022-08-22T06:41:53.846Z,184.10
2022-08-22T06:44:27.024Z,188.53
2022-08-22T06:47:00.375Z,169.82
2022-08-22T06:49:31.006Z,178.98
2022-08-22T06:52:03.275Z,161.02
2022-08-22T06:54:37.516Z,170.48
2022-08-22T06:57:08.063Z,158.00
2022-08-22T06:59:39.901Z,159.57
2022-08-22T07:02:27.702Z,153.43
2022-08-22T07:04:57.027Z,152.07
2022-08-22T07:07:28.938Z,152.35
2022-08-22T07:09:59.441Z,164.73
2022-08-22T07:12:33.108Z,158.40
2022-08-22T07:15:12.168Z,167.02
2022-08-22T07:17:51.147Z,155.38
2022-08-22T07:20:25.937Z,152.85
2022-08-22T07:22:59.604Z,152.57
2022-08-22T07:25:31.829Z,155.18
2022-08-22T07:28:18.307Z,144.82
2022-08-22T07:30:57.716Z,155.18
2022-08-22T07:33:44.121Z,154.10
2022-08-22T07:36:41.748Z,147.68
2022-08-22T07:39:26.296Z,152.85
2022-08-22T07:42:16.305Z,147.98
2022-08-22T07:45:00.724Z,154.02
2022-08-22T07:47:39.598Z,161.30
2022-08-22T07:50:13.376Z,159.98
2022-08-22T07:52:45.557Z,154.07
2022-08-22T07:55:19.961Z,151.00
2022-08-22T07:57:57.691Z,161.95
2022-08-22T08:00:29.081Z,153.20
2022-08-22T08:03:02.512Z,147.43
2022-08-22T08:05:36.119Z,158.43
2022-08-22T08:08:13.858Z,156.93
2022-08-22T08:10:45.077Z,154.15
2022-08-22T08:13:22.318Z,147.13
2022-08-22T08:15:52.172Z,141.00
2022-08-22T08:18:25.986Z,132.18
2022-08-22T08:20:58.836Z,139.10
2022-08-22T08:23:33.043Z,128.10
2022-08-22T08:26:11.202Z,135.02
2022-08-22T08:28:44.416Z,136.32
2022-08-22T08:31:22.656Z,135.45
2022-08-22T08:33:55.095Z,137.90
2022-08-22T08:36:36.774Z,127.82
2022-08-22T08:39:14.444Z,156.95
2022-08-22T08:42:24.576Z,149.13
2022-08-22T08:45:22.255Z,137.35
2022-08-22T08:48:09.097Z,139.70
2022-08-22T08:50:51.572Z,148.52
2022-08-22T08:53:48.186Z,128.82
2022-08-22T08:56:27.016Z,125.25
2022-08-22T08:59:10.259Z,125.90
2022-08-22T09:05:35.464Z,115.50
2022-08-22T09:08:56.118Z,115.45
2022-08-22T09:12:00.563Z,97.68
2022-08-22T09:14:56.552Z,81.78
2022-08-22T09:18:07.343Z,92.72
2022-08-22T09:20:52.444Z,86.25
2022-08-22T09:24:00.943Z,108.10
2022-08-22T09:26:43.804Z,112.43
2022-08-22T09:29:35.255Z,109.00
2022-08-22T09:32:28.742Z,105.53
2022-08-22T09:35:08.725Z,89.03
2022-08-22T09:37:50.392Z,72.22
2022-08-22T09:40:16.433Z,121.93
2022-08-22T09:40:29.636Z,63.65
2022-08-22T09:43:10.976Z,56.90
2022-08-22T09:45:50.254Z,56.63
2022-08-22T09:48:44.536Z,59.15
2022-08-22T09:51:33.305Z,62.95
2022-08-22T09:54:31.098Z,61.60
2022-08-22T09:57:29.903Z,54.40
2022-08-22T10:00:22.257Z,53.22
2022-08-22T10:03:05.901Z,51.58
2022-08-22T10:05:45.661Z,52.20
2022-08-22T10:08:32.167Z,51.92
2022-08-22T10:11:14.081Z,56.47
2022-08-22T10:14:00.707Z,54.22
2022-08-22T10:16:44.754Z,54.10
2022-08-22T10:19:21.420Z,59.15
2022-08-22T10:22:20.508Z,47.10
2022-08-22T10:25:00.040Z,51.53
2022-08-22T10:27:44.983Z,59.30
2022-08-22T10:30:18.995Z,51.47
2022-08-22T10:32:59.280Z,50.60
2022-08-22T10:35:33.884Z,51.65
2022-08-22T10:38:10.539Z,50.10
2022-08-22T10:40:45.502Z,55.58
2022-08-22T10:43:28.983Z,55.45
2022-08-22T10:46:12.645Z,54.95
2022-08-22T10:48:49.524Z,49.13
2022-08-22T10:51:34.395Z,43.97
2022-08-22T10:54:30.382Z,47.25
2022-08-22T10:57:20.739Z,41.58
2022-08-22T11:00:01.547Z,43.53
2022-08-22T11:02:53.071Z,45.67
2022-08-22T11:05:40.513Z,33.85
2022-08-22T11:08:29.109Z,33.90
2022-08-22T11:11:21.781Z,42.93
2022-08-22T11:14:09.025Z,45.05
2022-08-22T11:16:55.257Z,58.85
2022-08-22T11:20:07.072Z,48.20
2022-08-22T11:22:47.887Z,45.53
2022-08-22T11:25:38.547Z,47.30
2022-08-22T11:29:02.882Z,37.72
2022-08-22T11:31:52.379Z,36.42
2022-08-22T11:34:39.254Z,37.95
2022-08-22T11:37:19.067Z,34.63
2022-08-22T11:40:06.005Z,38.60
2022-08-22T11:42:47.678Z,34.08
2022-08-22T11:45:22.160Z,36.28
2022-08-22T11:48:02.632Z,32.38
2022-08-22T11:50:37.612Z,27.52
2022-08-22T11:53:22.901Z,28.27
2022-08-22T11:56:05.554Z,20.17
2022-08-22T11:58:48.903Z,22.63
2022-08-22T12:01:21.722Z,29.40
2022-08-22T12:04:05.974Z,20.88
2022-08-22T12:07:03.148Z,24.90
2022-08-22T12:09:50.881Z,17.58
2022-08-22T12:12:39.068Z,25.40
2022-08-22T12:15:18.672Z,16.85
2022-08-22T12:18:31.639Z,14.13
2022-08-22T12:21:31.686Z,12.70
2022-08-22T12:24:32.633Z,12.40
2022-08-22T12:27:28.838Z,19.88
2022-08-22T12:30:13.680Z,15.40
2022-08-22T12:33:22.004Z,13.95
2022-08-22T12:36:17.823Z,14.45
2022-08-22T12:39:08.951Z,13.82
2022-08-22T12:42:07.098Z,10.25
2022-08-22T12:44:48.473Z,13.82
2022-08-22T12:47:37.319Z,13.13
2022-08-22T12:50:26.000Z,12.88
2022-08-22T12:53:10.865Z,6.82
2022-08-22T12:55:59.465Z,9.35
2022-08-22T12:58:42.882Z,10.38
2022-08-22T13:01:13.829Z,4.28
2022-08-22T13:03:47.651Z,8.10
2022-08-22T13:06:53.121Z,7.05
2022-08-22T13:09:30.705Z,5.95
2022-08-22T13:12:07.310Z,10.32
2022-08-22T13:14:38.061Z,8.77
2022-08-22T13:17:24.976Z,4.60
2022-08-22T13:20:10.373Z,6.00
2022-08-22T13:22:45.634Z,4.47
2022-08-22T13:25:25.985Z,12.35
2022-08-22T13:27:59.454Z,6.93
2022-08-22T13:30:34.047Z,4.43
2022-08-22T13:33:11.045Z,4.25
2022-08-22T13:35:44.669Z,7.23
2022-08-22T13:38:26.258Z,5.75
2022-08-22T13:40:57.600Z,5.50
2022-08-22T13:43:31.168Z,11.10
2022-08-22T13:46:03.768Z,8.15
2022-08-22T13:48:49.508Z,6.60
2022-08-22T13:51:27.815Z,7.10
2022-08-22T13:54:11.038Z,4.53
2022-08-22T13:56:50.674Z,12.55
2022-08-22T13:59:50.309Z,8.38
2022-08-22T14:02:35.530Z,8.60
2022-08-22T14:05:12.664Z,9.90
2022-08-22T14:08:02.708Z,9.27
2022-08-22T14:10:35.568Z,4.00
2022-08-22T14:13:39.416Z,4.90
2022-08-22T14:16:15.023Z,8.25
2022-08-22T14:18:50.650Z,6.38
2022-08-22T14:21:39.939Z,5.63
2022-08-22T14:24:20.175Z,7.47
2022-08-22T14:29:32.190Z,13.18
2022-08-22T14:32:35.259Z,6.43
2022-08-22T14:35:16.955Z,10.18
2022-08-22T14:37:54.692Z,7.53
2022-08-22T14:40:30.169Z,7.10
2022-08-22T14:43:06.250Z,7.60
2022-08-22T14:45:40.262Z,5.82
2022-08-22T14:48:30.257Z,4.30
2022-08-22T14:51:04.143Z,20.35
2022-08-22T14:53:35.524Z,6.22
2022-08-22T14:56:10.872Z,10.07
2022-08-22T14:58:53.634Z,7.45
2022-08-22T15:01:25.920Z,9.23
2022-08-22T15:04:07.166Z,9.45
2022-08-22T15:06:39.391Z,15.32
2022-08-22T15:09:35.014Z,8.48
2022-08-22T15:12:10.549Z,8.68
2022-08-22T15:14:52.490Z,8.50
2022-08-22T15:17:44.471Z,10.35
2022-08-22T15:20:28.521Z,13.32
2022-08-22T15:23:02.026Z,8.13
2022-08-22T15:25:35.069Z,8.55
2022-08-22T15:28:14.489Z,9.88
2022-08-22T15:31:03.488Z,11.95
2022-08-22T15:33:35.904Z,11.55
2022-08-22T15:36:16.300Z,9.18
2022-08-22T15:38:48.455Z,8.80
2022-08-22T15:41:37.821Z,9.40
2022-08-22T15:44:15.054Z,10.25
2022-08-22T15:47:11.598Z,10.90
2022-08-22T15:49:51.965Z,8.60
2022-08-22T15:52:32.222Z,10.35
2022-08-22T15:55:18.937Z,11.48
2022-08-22T15:58:02.040Z,7.97
2022-08-22T16:00:44.933Z,7.30
2022-08-22T16:03:25.766Z,10.55
2022-08-22T16:05:58.155Z,9.05
2022-08-22T16:08:33.259Z,14.43
2022-08-22T16:11:27.544Z,10.82
2022-08-22T16:14:22.632Z,11.63
2022-08-22T16:17:03.381Z,13.13
2022-08-22T16:19:35.150Z,16.58
2022-08-22T16:22:15.060Z,9.82
2022-08-22T16:25:06.170Z,9.38
2022-08-22T16:30:34.840Z,10.32
2022-08-22T16:33:05.509Z,13.10
2022-08-22T16:36:24.815Z,11.70
2022-08-22T16:38:57.714Z,11.32
2022-08-22T16:41:37.467Z,9.70
2022-08-22T16:44:25.131Z,11.45
2022-08-22T16:46:55.222Z,15.93
2022-08-22T16:49:30.779Z,12.55
2022-08-22T16:52:36.680Z,9.75
2022-08-22T16:58:05.059Z,11.57
2022-08-22T17:00:48.757Z,12.75
2022-08-22T17:03:28.417Z,16.38
2022-08-22T17:06:06.377Z,14.52
2022-08-22T17:08:53.956Z,10.15
2022-08-22T17:11:35.110Z,10.70
2022-08-22T17:14:29.891Z,12.18
2022-08-22T17:17:15.177Z,15.15
2022-08-22T17:19:54.167Z,10.07
2022-08-22T17:22:31.948Z,13.23
2022-08-22T17:25:18.512Z,8.63
2022-08-22T17:27:54.505Z,13.30
2022-08-22T17:30:30.445Z,8.55
2022-08-22T17:33:12.358Z,10.20
2022-08-22T17:35:55.017Z,9.95
2022-08-22T17:38:41.439Z,9.00
2022-08-22T17:41:25.909Z,16.67
2022-08-22T17:44:04.352Z,14.13
2022-08-22T17:46:45.894Z,12.57
2022-08-22T17:49:23.521Z,14.48
2022-08-22T17:51:58.563Z,15.77
2022-08-22T17:54:35.691Z,11.75
2022-08-22T17:57:10.160Z,11.80
2022-08-22T17:59:47.577Z,16.55
2022-08-22T18:02:23.366Z,14.77
2022-08-22T18:05:01.560Z,19.60
2022-08-22T18:07:42.334Z,17.05
2022-08-22T18:10:21.629Z,21.65
2022-08-22T18:13:04.932Z,16.98
2022-08-22T18:18:30.373Z,18.75
2022-08-22T18:21:05.270Z,20.75
2022-08-22T18:23:40.708Z,19.73
2022-08-22T18:26:21.875Z,25.38
2022-08-22T18:28:58.675Z,28.45
2022-08-22T18:31:39.513Z,30.55
2022-08-22T18:34:20.156Z,23.60
2022-08-22T18:36:56.260Z,27.05
2022-08-22T18:39:30.379Z,24.73
2022-08-22T18:42:05.675Z,30.67
2022-08-22T18:44:39.887Z,27.98
2022-08-22T18:47:16.589Z,29.38
2022-08-22T18:49:54.715Z,30.73
2022-08-22T18:52:36.652Z,26.50
2022-08-22T18:55:42.692Z,31.40
2022-08-22T19:01:19.472Z,30.30
2022-08-22T19:04:14.502Z,33.17
2022-08-22T19:07:06.928Z,35.90
2022-08-22T19:10:06.619Z,32.45
2022-08-22T19:12:57.034Z,29.80
2022-08-22T19:15:35.683Z,28.15
2022-08-22T19:18:30.942Z,32.38
2022-08-22T19:21:40.601Z,33.03
2022-08-22T19:24:33.171Z,38.35
2022-08-22T19:27:25.487Z,38.85
2022-08-22T19:30:07.526Z,42.75
2022-08-22T19:33:03.043Z,37.22
2022-08-22T19:36:06.941Z,35.60
2022-08-22T19:38:58.022Z,40.30
2022-08-22T19:41:47.971Z,35.70
2022-08-22T19:44:34.685Z,38.83
2022-08-22T19:47:11.696Z,37.65
2022-08-22T19:49:45.245Z,37.30
2022-08-22T19:52:28.790Z,38.33
2022-08-22T19:55:10.216Z,39.53
2022-08-22T19:57:47.785Z,42.42
2022-08-22T20:00:20.538Z,45.80
2022-08-22T20:03:02.036Z,45.33
2022-08-22T20:05:47.371Z,45.05
2022-08-22T20:08:41.309Z,38.72
2022-08-22T20:11:24.453Z,35.88
2022-08-22T20:14:12.447Z,44.38
2022-08-22T20:17:04.546Z,43.88
2022-08-22T20:22:46.720Z,42.55
2022-08-22T20:25:42.698Z,39.28
2022-08-22T20:28:22.568Z,50.78
2022-08-22T20:30:59.089Z,42.17
2022-08-22T20:33:35.460Z,44.88
2022-08-22T20:36:28.070Z,45.28
2022-08-22T20:39:00.197Z,48.65
2022-08-22T20:41:35.712Z,44.22
2022-08-22T20:44:13.082Z,39.70
2022-08-22T20:46:53.839Z,46.97
2022-08-22T20:49:28.619Z,43.97
2022-08-22T20:52:00.275Z,40.33
2022-08-22T20:54:31.392Z,45.25
2022-08-22T20:57:02.573Z,44.70
2022-08-22T20:59:40.154Z,48.58
2022-08-22T21:02:16.254Z,43.75
2022-08-22T21:05:00.271Z,41.45
2022-08-22T21:07:32.222Z,43.42
2022-08-22T21:10:23.118Z,38.03
2022-08-22T21:13:03.602Z,44.70
2022-08-22T21:15:34.496Z,40.03
2022-08-22T21:18:06.417Z,40.70
2022-08-22T21:20:38.884Z,39.20
2022-08-22T21:23:15.654Z,44.33
2022-08-22T21:25:56.846Z,38.72
2022-08-22T21:28:32.404Z,43.20
2022-08-22T21:31:10.786Z,41.75
2022-08-22T21:33:49.286Z,43.47
2022-08-22T21:36:20.700Z,43.08
2022-08-22T21:38:54.065Z,37.45
2022-08-22T21:41:28.703Z,42.90
2022-08-22T21:43:57.895Z,48.03
2022-08-22T21:46:29.965Z,40.13
2022-08-22T21:49:05.596Z,45.97
2022-08-22T21:51:42.791Z,37.72
2022-08-22T21:54:40.004Z,45.13
2022-08-22T21:57:24.411Z,43.50
2022-08-22T21:59:59.307Z,36.67
2022-08-22T22:02:37.178Z,37.85
2022-08-22T22:05:11.484Z,39.50
2022-08-22T22:07:43.221Z,43.15
2022-08-22T22:10:15.842Z,37.47
2022-08-22T22:12:46.678Z,36.83
2022-08-22T22:15:18.306Z,38.17
2022-08-22T22:17:47.328Z,41.47
2022-08-22T22:20:19.642Z,41.53
2022-08-22T22:22:49.054Z,37.15
2022-08-22T22:25:40.916Z,35.53
2022-08-22T22:28:13.686Z,40.35
2022-08-22T22:30:44.185Z,33.70
2022-08-22T22:33:13.609Z,34.30
2022-08-22T22:35:44.330Z,40.03
2022-08-22T22:38:13.954Z,36.53
2022-08-22T22:40:43.474Z,37.42
2022-08-22T22:43:12.778Z,36.63
2022-08-22T22:45:41.852Z,33.83
2022-08-22T22:48:10.776Z,35.92
2022-08-22T22:50:44.288Z,36.42
2022-08-22T22:53:19.833Z,34.10
2022-08-22T22:56:00.156Z,32.55
2022-08-22T22:58:29.833Z,35.55
2022-08-22T23:00:59.308Z,37.08
2022-08-22T23:03:28.617Z,33.03
2022-08-22T23:05:58.979Z,37.03
2022-08-22T23:08:27.975Z,32.38
2022-08-22T23:10:56.974Z,42.08
2022-08-22T23:13:25.908Z,33.08
2022-08-22T23:15:55.713Z,30.92
2022-08-22T23:18:30.179Z,31.55
2022-08-22T23:21:11.156Z,39.28
2022-08-22T23:23:40.155Z,27.25
2022-08-22T23:26:09.752Z,30.42
2022-08-22T23:28:38.821Z,31.98
2022-08-22T23:31:12.709Z,32.58
2022-08-22T23:33:42.547Z,30.77
2022-08-22T23:36:15.476Z,29.85
2022-08-22T23:38:44.814Z,30.63
2022-08-22T23:41:15.820Z,29.17
2022-08-22T23:43:47.427Z,30.98
2022-08-22T23:46:18.792Z,28.50
2022-08-22T23:48:48.356Z,30.80
2022-08-22T23:51:22.924Z,31.42
2022-08-22T23:56:23.285Z,37.05
2022-08-22T23:58:53.270Z,34.47
